Terminal Aerodrome Forecast
Issued by NWS Bismarck, ND

Home | Current Version | Previous Version | Text Only | Print | Product List | Glossary Off
Versions: 1 2 3 4 5 6 7 8 9 10 11 12 13 14 15 16 17 18 19 20

000
FTUS43 KBIS 230901 AAA
TAFISN
TAF AMD
KISN 230901Z 2309/2406 33014G20KT P6SM SCT070 BKN150
     FM231300 30010KT P6SM BKN150
     FM231700 27016G22KT P6SM FEW050
     FM240300 27010KT P6SM SCT050=

USA.gov is the U.S. government's official web portal to all federal, state and local government web resources and services.